createdAt,value
2023-07-16T00:00:00.313Z,0.00
2023-07-16T00:01:00.363Z,0.00
2023-07-16T00:02:00.375Z,0.00
2023-07-16T00:03:00.339Z,0.00
2023-07-16T00:04:00.346Z,0.00
2023-07-16T00:05:00.268Z,0.00
2023-07-16T00:06:00.278Z,0.00
2023-07-16T00:07:00.306Z,0.00
2023-07-16T00:08:00.235Z,0.00
2023-07-16T00:09:00.235Z,0.00
2023-07-16T00:10:00.222Z,0.00
2023-07-16T00:11:00.192Z,0.00
2023-07-16T00:12:00.189Z,0.00
2023-07-16T00:13:00.182Z,0.00
2023-07-16T00:14:00.949Z,0.00
2023-07-16T00:15:00.170Z,0.00
2023-07-16T00:16:00.246Z,0.00
2023-07-16T00:17:00.322Z,0.00
2023-07-16T00:18:00.173Z,0.00
2023-07-16T00:19:00.159Z,0.00
2023-07-16T00:20:00.163Z,0.00
2023-07-16T00:21:00.077Z,0.00
2023-07-16T00:22:00.696Z,0.00
2023-07-16T00:23:00.120Z,0.00
2023-07-16T00:24:00.144Z,0.00
2023-07-16T00:25:00.027Z,0.00
2023-07-16T00:26:00.033Z,0.00
2023-07-16T00:27:00.026Z,0.00
2023-07-16T00:28:00.302Z,0.00
2023-07-16T00:29:00.418Z,0.00
2023-07-16T00:30:00.585Z,0.00
2023-07-16T00:31:00.033Z,0.00
2023-07-16T00:32:00.699Z,0.00
2023-07-16T00:32:59.970Z,0.00
2023-07-16T00:33:59.947Z,0.00
2023-07-16T00:34:59.952Z,0.00
2023-07-16T00:35:59.923Z,0.00
2023-07-16T00:36:59.960Z,0.00
2023-07-16T00:37:59.902Z,0.00
2023-07-16T00:38:59.888Z,0.00
2023-07-16T00:39:59.908Z,0.00
2023-07-16T00:40:59.873Z,0.00
2023-07-16T00:41:59.863Z,0.00
2023-07-16T00:42:59.843Z,0.00
2023-07-16T00:43:59.833Z,0.00
2023-07-16T00:44:59.879Z,0.00
2023-07-16T00:45:59.888Z,0.00
2023-07-16T00:46:59.927Z,0.00
2023-07-16T00:47:59.817Z,0.00
2023-07-16T00:48:59.790Z,0.00
2023-07-16T00:49:59.763Z,0.00
2023-07-16T00:50:59.751Z,0.00
2023-07-16T00:51:59.757Z,0.00
2023-07-16T00:52:59.753Z,0.00
2023-07-16T00:53:59.736Z,0.00
2023-07-16T00:54:59.718Z,0.00
2023-07-16T00:55:59.721Z,0.00
2023-07-16T00:56:59.727Z,0.00
2023-07-16T00:57:59.702Z,0.00
2023-07-16T00:58:59.667Z,0.00
2023-07-16T00:59:59.683Z,0.00
2023-07-16T01:00:59.637Z,0.00
2023-07-16T01:01:59.724Z,0.00
2023-07-16T01:02:59.761Z,0.00
2023-07-16T01:03:59.629Z,0.00
2023-07-16T01:05:00.709Z,0.00
2023-07-16T01:05:59.594Z,0.00
2023-07-16T01:06:59.640Z,0.00
2023-07-16T01:07:59.587Z,0.00
2023-07-16T01:08:59.572Z,0.00
2023-07-16T01:09:59.625Z,0.00
2023-07-16T01:10:59.537Z,0.00
2023-07-16T01:11:59.554Z,0.00
2023-07-16T01:12:59.540Z,0.00
2023-07-16T01:13:59.527Z,0.00
2023-07-16T01:15:00.093Z,0.00
2023-07-16T01:15:59.514Z,0.00
2023-07-16T01:16:59.561Z,0.00
2023-07-16T01:17:59.535Z,0.00
2023-07-16T01:18:59.456Z,0.00
2023-07-16T01:19:59.544Z,0.00
2023-07-16T01:20:59.435Z,0.00
2023-07-16T01:21:59.429Z,0.00
2023-07-16T01:22:59.502Z,0.00
2023-07-16T01:23:59.407Z,0.00
2023-07-16T01:24:59.416Z,0.00
2023-07-16T01:26:00.215Z,0.00
2023-07-16T01:26:59.365Z,0.00
2023-07-16T01:27:59.391Z,0.00
2023-07-16T01:28:59.360Z,0.00
2023-07-16T01:29:59.399Z,0.00
2023-07-16T01:30:59.338Z,0.00
2023-07-16T01:31:59.350Z,0.00
2023-07-16T01:32:59.665Z,0.00
2023-07-16T01:33:59.361Z,0.00
2023-07-16T01:34:59.295Z,0.00
2023-07-16T01:35:59.303Z,0.00
2023-07-16T01:36:59.265Z,0.00
2023-07-16T01:37:59.294Z,0.00
2023-07-16T01:38:59.271Z,0.00
2023-07-16T01:39:59.245Z,0.00
2023-07-16T01:40:59.232Z,0.00
2023-07-16T01:41:59.237Z,0.00
2023-07-16T01:42:59.251Z,0.00
2023-07-16T01:43:59.192Z,0.00
2023-07-16T01:44:59.222Z,0.00
2023-07-16T01:45:59.223Z,0.00
2023-07-16T01:46:59.176Z,0.00
2023-07-16T01:47:59.184Z,0.00
2023-07-16T01:48:59.142Z,0.00
2023-07-16T01:49:59.147Z,0.00
2023-07-16T01:50:59.113Z,0.00
2023-07-16T01:51:59.120Z,0.00
2023-07-16T01:52:59.096Z,0.00
2023-07-16T01:53:59.087Z,0.00
2023-07-16T01:54:59.226Z,0.00
2023-07-16T01:55:59.076Z,0.00
2023-07-16T01:56:59.054Z,0.00
2023-07-16T01:57:59.724Z,0.00
2023-07-16T01:58:59.049Z,0.00
2023-07-16T01:59:59.023Z,0.00
2023-07-16T02:00:59.192Z,0.00
2023-07-16T02:01:59.015Z,0.00
2023-07-16T02:02:59.090Z,0.00
2023-07-16T02:03:58.986Z,0.00
2023-07-16T02:04:58.994Z,0.00
2023-07-16T02:05:59.013Z,0.00
2023-07-16T02:06:58.942Z,0.00
2023-07-16T02:07:58.939Z,0.00
2023-07-16T02:08:58.929Z,0.00
2023-07-16T02:09:58.914Z,0.00
2023-07-16T02:10:59.628Z,0.00
2023-07-16T02:11:58.911Z,0.00
2023-07-16T02:12:58.875Z,0.00
2023-07-16T02:13:58.874Z,0.00
2023-07-16T02:14:58.893Z,0.00
2023-07-16T02:15:58.920Z,0.00
2023-07-16T02:16:58.850Z,0.00
2023-07-16T02:17:58.891Z,0.00
2023-07-16T02:18:58.831Z,0.00
2023-07-16T02:19:58.820Z,0.00
2023-07-16T02:20:58.849Z,0.00
2023-07-16T02:21:58.778Z,0.00
2023-07-16T02:22:58.826Z,0.00
2023-07-16T02:23:59.003Z,0.00
2023-07-16T02:24:58.752Z,0.00
2023-07-16T02:25:58.910Z,0.00
2023-07-16T02:26:59.258Z,0.00
2023-07-16T02:27:58.727Z,0.00
2023-07-16T02:28:58.755Z,0.00
2023-07-16T02:29:58.749Z,0.00
2023-07-16T02:30:58.750Z,0.00
2023-07-16T02:31:58.676Z,0.00
2023-07-16T02:32:58.709Z,0.00
2023-07-16T02:33:58.667Z,0.00
2023-07-16T02:34:58.651Z,0.00
2023-07-16T02:35:58.635Z,0.00
2023-07-16T02:36:58.623Z,0.00
2023-07-16T02:37:58.650Z,0.00
2023-07-16T02:38:59.505Z,0.00
2023-07-16T02:39:58.628Z,0.00
2023-07-16T02:40:58.607Z,0.00
2023-07-16T02:41:58.568Z,0.00
2023-07-16T02:42:59.253Z,0.00
2023-07-16T02:43:58.561Z,0.00
2023-07-16T02:44:58.534Z,0.00
2023-07-16T02:45:58.555Z,0.00
2023-07-16T02:46:58.557Z,0.00
2023-07-16T02:47:58.516Z,0.00
2023-07-16T02:48:58.492Z,0.00
2023-07-16T02:49:58.482Z,0.00
2023-07-16T02:50:58.495Z,0.00
2023-07-16T02:51:58.453Z,0.00
2023-07-16T02:52:58.446Z,0.00
2023-07-16T02:53:58.455Z,4.00
2023-07-16T02:54:58.454Z,4.00
2023-07-16T02:55:59.140Z,4.00
2023-07-16T02:56:58.427Z,4.00
2023-07-16T02:57:58.391Z,0.00
2023-07-16T02:58:58.396Z,4.00
2023-07-16T02:59:58.396Z,4.00
2023-07-16T03:00:58.448Z,8.00
2023-07-16T03:01:58.469Z,4.00
2023-07-16T03:02:58.426Z,4.00
2023-07-16T03:03:58.323Z,8.00
2023-07-16T03:04:58.376Z,8.00
2023-07-16T03:05:58.313Z,8.00
2023-07-16T03:06:58.304Z,8.00
2023-07-16T03:07:58.286Z,8.00
2023-07-16T03:08:58.293Z,8.00
2023-07-16T03:09:58.254Z,12.00
2023-07-16T03:10:58.328Z,12.00
2023-07-16T03:11:58.276Z,12.00
2023-07-16T03:12:58.244Z,12.00
2023-07-16T03:13:58.246Z,16.00
2023-07-16T03:14:58.232Z,16.00
2023-07-16T03:15:58.214Z,20.00
2023-07-16T03:16:58.256Z,20.00
2023-07-16T03:17:58.254Z,16.00
2023-07-16T03:18:58.767Z,12.00
2023-07-16T03:19:58.180Z,16.00
2023-07-16T03:20:58.152Z,16.00
2023-07-16T03:21:58.153Z,12.00
2023-07-16T03:22:58.161Z,16.00
2023-07-16T03:23:58.152Z,20.00
2023-07-16T03:24:58.219Z,20.00
2023-07-16T03:25:58.114Z,24.00
2023-07-16T03:27:08.181Z,24.00
2023-07-16T03:27:58.105Z,28.00
2023-07-16T03:28:58.070Z,28.00
2023-07-16T03:29:58.059Z,28.00
2023-07-16T03:30:58.090Z,36.00
2023-07-16T03:31:58.040Z,36.00
2023-07-16T03:32:58.084Z,32.00
2023-07-16T03:33:58.008Z,32.00
2023-07-16T03:34:58.017Z,32.00
2023-07-16T03:35:57.991Z,28.00
2023-07-16T03:36:57.978Z,24.00
2023-07-16T03:37:57.970Z,20.00
2023-07-16T03:38:58.053Z,16.00
2023-07-16T03:39:58.011Z,16.00
2023-07-16T03:40:57.956Z,20.00
2023-07-16T03:41:58.011Z,20.00
2023-07-16T03:42:57.920Z,28.00
2023-07-16T03:43:57.897Z,32.00
2023-07-16T03:44:57.895Z,40.00
2023-07-16T03:45:57.883Z,44.00
2023-07-16T03:46:57.947Z,48.00
2023-07-16T03:47:57.945Z,52.00
2023-07-16T03:48:57.868Z,56.00
2023-07-16T03:49:57.871Z,60.00
2023-07-16T03:50:57.836Z,60.00
2023-07-16T03:51:57.908Z,64.00
2023-07-16T03:52:57.816Z,68.00
2023-07-16T03:53:57.818Z,76.00
2023-07-16T03:54:57.781Z,84.00
2023-07-16T03:55:57.782Z,96.00
2023-07-16T03:56:57.754Z,104.00
2023-07-16T03:57:57.766Z,108.00
2023-07-16T03:58:58.639Z,120.00
2023-07-16T03:59:57.741Z,132.00
2023-07-16T04:00:57.719Z,152.00
2023-07-16T04:01:57.729Z,184.00
2023-07-16T04:02:57.810Z,232.00
2023-07-16T04:03:57.731Z,268.00
2023-07-16T04:04:57.683Z,260.00
2023-07-16T04:05:57.673Z,216.00
2023-07-16T04:06:57.650Z,176.00
2023-07-16T04:07:57.651Z,152.00
2023-07-16T04:08:57.682Z,140.00
2023-07-16T04:09:57.633Z,124.00
2023-07-16T04:10:57.665Z,108.00
2023-07-16T04:11:57.611Z,104.00
2023-07-16T04:12:57.606Z,104.00
2023-07-16T04:13:58.279Z,108.00
2023-07-16T04:14:57.589Z,120.00
2023-07-16T04:15:57.552Z,132.00
2023-07-16T04:16:57.578Z,140.00
2023-07-16T04:17:57.561Z,156.00
2023-07-16T04:18:57.533Z,188.00
2023-07-16T04:19:57.542Z,228.00
2023-07-16T04:20:57.507Z,260.00
2023-07-16T04:21:57.489Z,272.00
2023-07-16T04:22:57.540Z,276.00
2023-07-16T04:23:58.294Z,268.00
2023-07-16T04:24:57.522Z,260.00
2023-07-16T04:25:57.466Z,260.00
2023-07-16T04:26:57.451Z,248.00
2023-07-16T04:27:57.436Z,232.00
2023-07-16T04:28:57.440Z,196.00
2023-07-16T04:29:57.413Z,160.00
2023-07-16T04:30:57.415Z,132.00
2023-07-16T04:31:57.377Z,104.00
2023-07-16T04:32:57.422Z,88.00
2023-07-16T04:33:57.351Z,76.00
2023-07-16T04:34:57.397Z,64.00
2023-07-16T04:35:57.370Z,52.00
2023-07-16T04:36:57.367Z,48.00
2023-07-16T04:37:57.313Z,44.00
2023-07-16T04:38:57.309Z,40.00
2023-07-16T04:39:57.295Z,40.00
2023-07-16T04:40:57.294Z,40.00
2023-07-16T04:41:57.300Z,40.00
2023-07-16T04:42:57.264Z,40.00
2023-07-16T04:43:57.256Z,48.00
2023-07-16T04:44:57.248Z,52.00
2023-07-16T04:45:57.291Z,60.00
2023-07-16T04:46:57.481Z,84.00
2023-07-16T04:47:57.237Z,116.00
2023-07-16T04:48:57.201Z,132.00
2023-07-16T04:49:59.945Z,124.00
2023-07-16T04:50:57.165Z,112.00
2023-07-16T04:51:57.242Z,120.00
2023-07-16T04:52:57.184Z,148.00
2023-07-16T04:54:03.677Z,180.00
2023-07-16T04:54:57.129Z,224.00
2023-07-16T04:55:57.119Z,288.00
2023-07-16T04:56:57.099Z,356.00
2023-07-16T04:57:57.143Z,380.00
2023-07-16T04:58:57.078Z,352.00
2023-07-16T04:59:57.077Z,288.00
2023-07-16T05:00:57.082Z,236.00
2023-07-16T05:01:57.066Z,220.00
2023-07-16T05:02:57.051Z,192.00
2023-07-16T05:03:57.074Z,160.00
2023-07-16T05:04:57.014Z,172.00
2023-07-16T05:05:57.008Z,200.00
2023-07-16T05:06:56.997Z,240.00
2023-07-16T05:07:56.992Z,296.00
2023-07-16T05:08:57.044Z,324.00
2023-07-16T05:09:56.970Z,364.00
2023-07-16T05:10:56.949Z,400.00
2023-07-16T05:11:56.937Z,416.00
2023-07-16T05:12:56.923Z,456.00
2023-07-16T05:13:56.921Z,500.00
2023-07-16T05:14:56.941Z,508.00
2023-07-16T05:15:56.932Z,488.00
2023-07-16T05:16:56.986Z,480.00
2023-07-16T05:17:57.012Z,476.00
2023-07-16T05:18:56.866Z,504.00
2023-07-16T05:19:56.857Z,528.00
2023-07-16T05:20:56.852Z,556.00
2023-07-16T05:21:56.845Z,624.00
2023-07-16T05:22:56.871Z,676.00
2023-07-16T05:23:56.802Z,708.00
2023-07-16T05:24:56.796Z,720.00
2023-07-16T05:25:56.835Z,732.00
2023-07-16T05:26:56.765Z,756.00
2023-07-16T05:27:56.764Z,768.00
2023-07-16T05:28:56.750Z,756.00
2023-07-16T05:29:56.758Z,732.00
2023-07-16T05:30:56.754Z,764.00
2023-07-16T05:31:56.827Z,716.00
2023-07-16T05:32:56.764Z,688.00
2023-07-16T05:33:56.694Z,628.00
2023-07-16T05:34:56.738Z,552.00
2023-07-16T05:35:56.703Z,484.00
2023-07-16T05:36:56.671Z,440.00
2023-07-16T05:37:56.663Z,420.00
2023-07-16T05:38:56.656Z,400.00
2023-07-16T05:39:56.640Z,388.00
2023-07-16T05:40:56.633Z,388.00
2023-07-16T05:41:56.624Z,384.00
2023-07-16T05:42:56.602Z,400.00
2023-07-16T05:43:56.593Z,532.00
2023-07-16T05:44:56.612Z,424.00
2023-07-16T05:45:56.631Z,356.00
2023-07-16T05:46:56.557Z,500.00
2023-07-16T05:47:56.614Z,380.00
2023-07-16T05:48:56.624Z,340.00
2023-07-16T05:49:56.540Z,344.00
2023-07-16T05:50:56.540Z,408.00
2023-07-16T05:51:56.511Z,348.00
2023-07-16T05:52:56.491Z,356.00
2023-07-16T05:53:56.493Z,516.00
2023-07-16T05:54:56.464Z,548.00
2023-07-16T05:55:56.460Z,552.00
2023-07-16T05:56:56.458Z,560.00
2023-07-16T05:57:56.459Z,564.00
2023-07-16T05:58:56.433Z,564.00
2023-07-16T05:59:56.780Z,564.00
2023-07-16T06:00:56.405Z,448.00
2023-07-16T06:01:56.519Z,488.00
2023-07-16T06:02:56.419Z,584.00
2023-07-16T06:03:56.407Z,588.00
2023-07-16T06:04:56.364Z,588.00
2023-07-16T06:05:56.352Z,588.00
2023-07-16T06:06:56.359Z,592.00
2023-07-16T06:07:56.380Z,600.00
2023-07-16T06:08:56.407Z,600.00
2023-07-16T06:09:56.318Z,604.00
2023-07-16T06:10:56.318Z,604.00
2023-07-16T06:11:56.304Z,604.00
2023-07-16T06:12:56.308Z,612.00
2023-07-16T06:13:56.377Z,616.00
2023-07-16T06:14:56.290Z,620.00
2023-07-16T06:15:56.291Z,624.00
2023-07-16T06:16:56.296Z,632.00
2023-07-16T06:17:56.261Z,636.00
2023-07-16T06:18:56.214Z,644.00
2023-07-16T06:19:56.220Z,644.00
2023-07-16T06:20:56.211Z,648.00
2023-07-16T06:21:56.190Z,644.00
2023-07-16T06:22:56.223Z,648.00
2023-07-16T06:23:56.177Z,652.00
2023-07-16T06:24:56.178Z,648.00
2023-07-16T06:25:56.197Z,652.00
2023-07-16T06:26:56.134Z,652.00
2023-07-16T06:27:56.157Z,652.00
2023-07-16T06:28:56.120Z,652.00
2023-07-16T06:29:56.184Z,656.00
2023-07-16T06:30:56.337Z,664.00
2023-07-16T06:31:56.244Z,660.00
2023-07-16T06:32:56.239Z,668.00
2023-07-16T06:33:56.086Z,672.00
2023-07-16T06:34:56.114Z,676.00
2023-07-16T06:35:56.041Z,668.00
2023-07-16T06:36:56.068Z,680.00
2023-07-16T06:37:56.014Z,680.00
2023-07-16T06:38:55.996Z,684.00
2023-07-16T06:39:56.178Z,688.00
2023-07-16T06:40:55.998Z,692.00
2023-07-16T06:41:55.965Z,696.00
2023-07-16T06:42:55.968Z,700.00
2023-07-16T06:43:55.940Z,700.00
2023-07-16T06:44:55.953Z,708.00
2023-07-16T06:45:56.130Z,712.00
2023-07-16T06:46:55.917Z,708.00
2023-07-16T06:47:55.944Z,720.00
2023-07-16T06:48:55.932Z,728.00
2023-07-16T06:49:55.887Z,736.00
2023-07-16T06:50:55.888Z,760.00
2023-07-16T06:51:55.893Z,792.00
2023-07-16T06:52:55.874Z,840.00
2023-07-16T06:53:55.850Z,908.00
2023-07-16T06:54:55.833Z,1044.00
2023-07-16T06:55:55.824Z,1188.00
2023-07-16T06:56:55.840Z,1216.00
2023-07-16T06:57:55.812Z,1236.00
2023-07-16T06:58:55.787Z,1140.00
2023-07-16T06:59:55.778Z,840.00
2023-07-16T07:00:55.823Z,824.00
2023-07-16T07:01:55.846Z,976.00
2023-07-16T07:02:55.818Z,1152.00
2023-07-16T07:03:55.814Z,1268.00
2023-07-16T07:04:55.738Z,1100.00
2023-07-16T07:05:55.715Z,1336.00
2023-07-16T07:06:55.753Z,1608.00
2023-07-16T07:07:55.710Z,1164.00
2023-07-16T07:08:55.692Z,1164.00
2023-07-16T07:09:55.680Z,1084.00
2023-07-16T07:10:55.676Z,1192.00
2023-07-16T07:11:55.652Z,1024.00
2023-07-16T07:12:55.682Z,880.00
2023-07-16T07:13:55.658Z,828.00
2023-07-16T07:14:55.623Z,976.00
2023-07-16T07:15:55.639Z,984.00
2023-07-16T07:16:55.601Z,1164.00
2023-07-16T07:17:55.654Z,1464.00
2023-07-16T07:18:55.613Z,1424.00
2023-07-16T07:19:55.596Z,1120.00
2023-07-16T07:20:55.568Z,1320.00
2023-07-16T07:21:55.605Z,1256.00
2023-07-16T07:22:55.588Z,1176.00
2023-07-16T07:23:55.554Z,1188.00
2023-07-16T07:24:55.522Z,1076.00
2023-07-16T07:25:55.519Z,1232.00
2023-07-16T07:26:55.504Z,1768.00
2023-07-16T07:27:55.503Z,1716.00
2023-07-16T07:28:55.481Z,1564.00
2023-07-16T07:29:55.464Z,1460.00
2023-07-16T07:30:55.489Z,1484.00
2023-07-16T07:31:55.444Z,2168.00
2023-07-16T07:32:55.482Z,2060.00
2023-07-16T07:33:55.448Z,2240.00
2023-07-16T07:34:55.471Z,2040.00
2023-07-16T07:35:55.400Z,1840.00
2023-07-16T07:36:55.381Z,2040.00
2023-07-16T07:37:55.367Z,1648.00
2023-07-16T07:38:55.372Z,932.00
2023-07-16T07:39:55.376Z,756.00
2023-07-16T07:40:55.357Z,728.00
2023-07-16T07:41:55.324Z,652.00
2023-07-16T07:42:55.337Z,652.00
2023-07-16T07:43:55.314Z,692.00
2023-07-16T07:44:55.301Z,784.00
2023-07-16T07:45:55.349Z,844.00
2023-07-16T07:46:55.312Z,872.00
2023-07-16T07:47:55.328Z,796.00
2023-07-16T07:48:55.264Z,600.00
2023-07-16T07:49:55.241Z,580.00
2023-07-16T07:50:55.243Z,580.00
2023-07-16T07:51:55.229Z,620.00
2023-07-16T07:52:55.224Z,652.00
2023-07-16T07:53:55.219Z,680.00
2023-07-16T07:54:55.207Z,668.00
2023-07-16T07:55:55.241Z,728.00
2023-07-16T07:56:55.229Z,804.00
2023-07-16T07:57:55.209Z,1220.00
2023-07-16T07:58:55.241Z,1104.00
2023-07-16T07:59:55.156Z,1592.00
2023-07-16T08:00:55.156Z,1684.00
2023-07-16T08:01:55.121Z,2060.00
2023-07-16T08:02:55.192Z,2332.00
2023-07-16T08:03:55.260Z,2272.00
2023-07-16T08:04:55.265Z,1600.00
2023-07-16T08:05:55.065Z,1544.00
2023-07-16T08:06:55.078Z,1160.00
2023-07-16T08:07:55.056Z,932.00
2023-07-16T08:08:55.094Z,508.00
2023-07-16T08:09:55.038Z,476.00
2023-07-16T08:10:55.029Z,536.00
2023-07-16T08:11:55.012Z,632.00
2023-07-16T08:12:55.018Z,620.00
2023-07-16T08:13:54.999Z,556.00
2023-07-16T08:14:54.993Z,504.00
2023-07-16T08:15:54.998Z,500.00
2023-07-16T08:16:55.040Z,460.00
2023-07-16T08:17:55.017Z,408.00
2023-07-16T08:18:54.943Z,420.00
2023-07-16T08:19:54.994Z,428.00
2023-07-16T08:20:54.980Z,444.00
2023-07-16T08:21:54.905Z,860.00
2023-07-16T08:22:55.031Z,820.00
2023-07-16T08:23:54.953Z,828.00
2023-07-16T08:24:54.891Z,828.00
2023-07-16T08:25:54.869Z,804.00
2023-07-16T08:26:54.851Z,804.00
2023-07-16T08:27:54.951Z,812.00
2023-07-16T08:28:54.852Z,832.00
2023-07-16T08:29:54.821Z,888.00
2023-07-16T08:30:54.844Z,948.00
2023-07-16T08:31:54.857Z,948.00
2023-07-16T08:32:54.856Z,968.00
2023-07-16T08:33:54.789Z,872.00
2023-07-16T08:34:54.769Z,688.00
2023-07-16T08:35:54.766Z,924.00
2023-07-16T08:36:54.753Z,912.00
2023-07-16T08:37:54.731Z,880.00
2023-07-16T08:38:54.774Z,868.00
2023-07-16T08:39:54.742Z,864.00
2023-07-16T08:40:54.720Z,992.00
2023-07-16T08:41:54.779Z,1052.00
2023-07-16T08:42:54.697Z,1132.00
2023-07-16T08:43:54.677Z,1068.00
2023-07-16T08:44:54.748Z,1076.00
2023-07-16T08:45:54.703Z,1084.00
2023-07-16T08:46:54.710Z,1096.00
2023-07-16T08:47:54.744Z,1120.00
2023-07-16T08:48:54.632Z,788.00
2023-07-16T08:49:54.642Z,836.00
2023-07-16T08:50:54.715Z,772.00
2023-07-16T08:51:54.637Z,776.00
2023-07-16T08:52:54.585Z,720.00
2023-07-16T08:53:54.568Z,832.00
2023-07-16T08:54:54.566Z,928.00
2023-07-16T08:55:57.788Z,1020.00
2023-07-16T08:56:54.733Z,1044.00
2023-07-16T08:57:54.527Z,936.00
2023-07-16T08:58:54.509Z,440.00
2023-07-16T08:59:54.512Z,412.00
2023-07-16T09:00:54.500Z,404.00
2023-07-16T09:01:54.481Z,360.00
2023-07-16T09:02:54.509Z,708.00
2023-07-16T09:03:54.480Z,680.00
2023-07-16T09:04:54.491Z,692.00
2023-07-16T09:05:54.460Z,724.00
2023-07-16T09:06:54.442Z,732.00
2023-07-16T09:07:54.422Z,684.00
2023-07-16T09:08:54.432Z,716.00
2023-07-16T09:09:54.392Z,776.00
2023-07-16T09:10:54.395Z,776.00
2023-07-16T09:11:54.393Z,1084.00
2023-07-16T09:12:54.362Z,1104.00
2023-07-16T09:13:54.373Z,1088.00
2023-07-16T09:14:54.348Z,1084.00
2023-07-16T09:15:54.340Z,1076.00
2023-07-16T09:16:54.424Z,1104.00
2023-07-16T09:17:54.379Z,1144.00
2023-07-16T09:18:54.304Z,1192.00
2023-07-16T09:19:54.310Z,1260.00
2023-07-16T09:20:54.432Z,1328.00
2023-07-16T09:21:54.263Z,1392.00
2023-07-16T09:22:54.320Z,1580.00
2023-07-16T09:23:54.247Z,1660.00
2023-07-16T09:24:54.248Z,1616.00
2023-07-16T09:25:54.242Z,1128.00
2023-07-16T09:26:54.315Z,1000.00
2023-07-16T09:27:54.204Z,1336.00
2023-07-16T09:28:54.201Z,1316.00
2023-07-16T09:29:54.185Z,1252.00
2023-07-16T09:30:54.314Z,1216.00
2023-07-16T09:31:54.268Z,936.00
2023-07-16T09:32:54.243Z,1340.00
2023-07-16T09:33:54.140Z,1336.00
2023-07-16T09:34:54.136Z,1212.00
2023-07-16T09:35:54.164Z,1180.00
2023-07-16T09:36:54.133Z,1180.00
2023-07-16T09:37:54.096Z,860.00
2023-07-16T09:38:54.129Z,1148.00
2023-07-16T09:39:54.071Z,1104.00
2023-07-16T09:40:54.108Z,1116.00
2023-07-16T09:41:54.058Z,1092.00
2023-07-16T09:42:54.060Z,1068.00
2023-07-16T09:43:54.071Z,1068.00
2023-07-16T09:44:54.056Z,1176.00
2023-07-16T09:45:54.065Z,1224.00
2023-07-16T09:46:54.097Z,1216.00
2023-07-16T09:47:54.037Z,1164.00
2023-07-16T09:48:53.992Z,1172.00
2023-07-16T09:49:54.008Z,772.00
2023-07-16T09:50:54.148Z,784.00
2023-07-16T09:51:53.966Z,812.00
2023-07-16T09:52:53.951Z,880.00
2023-07-16T09:53:53.934Z,952.00
2023-07-16T09:54:53.933Z,1032.00
2023-07-16T09:55:53.916Z,1116.00
2023-07-16T09:56:53.973Z,976.00
2023-07-16T09:57:53.916Z,964.00
2023-07-16T09:58:54.808Z,912.00
2023-07-16T09:59:53.923Z,1040.00
2023-07-16T10:00:53.962Z,1240.00
2023-07-16T10:01:53.883Z,1184.00
2023-07-16T10:02:53.925Z,792.00
2023-07-16T10:03:53.884Z,784.00
2023-07-16T10:04:53.856Z,924.00
2023-07-16T10:05:53.860Z,1160.00
2023-07-16T10:06:53.805Z,1144.00
2023-07-16T10:07:53.789Z,1144.00
2023-07-16T10:08:53.778Z,1140.00
2023-07-16T10:09:53.840Z,1184.00
2023-07-16T10:10:53.770Z,1256.00
2023-07-16T10:11:53.740Z,1372.00
2023-07-16T10:12:53.786Z,1416.00
2023-07-16T10:13:53.724Z,1492.00
2023-07-16T10:14:53.724Z,1536.00
2023-07-16T10:15:53.822Z,1588.00
2023-07-16T10:16:53.781Z,1648.00
2023-07-16T10:17:53.726Z,1760.00
2023-07-16T10:18:53.679Z,1808.00
2023-07-16T10:19:53.692Z,1796.00
2023-07-16T10:20:53.710Z,1772.00
2023-07-16T10:21:53.633Z,1580.00
2023-07-16T10:22:53.693Z,1832.00
2023-07-16T10:23:53.618Z,1804.00
2023-07-16T10:24:53.641Z,1872.00
2023-07-16T10:25:53.677Z,2108.00
2023-07-16T10:26:53.592Z,2036.00
2023-07-16T10:27:53.575Z,1816.00
2023-07-16T10:28:53.581Z,1500.00
2023-07-16T10:29:53.556Z,1148.00
2023-07-16T10:30:53.576Z,1036.00
2023-07-16T10:31:53.988Z,1104.00
2023-07-16T10:32:53.713Z,1400.00
2023-07-16T10:33:53.508Z,1620.00
2023-07-16T10:34:53.505Z,1580.00
2023-07-16T10:35:53.507Z,1540.00
2023-07-16T10:36:53.484Z,1676.00
2023-07-16T10:37:53.505Z,1524.00
2023-07-16T10:38:53.455Z,1420.00
2023-07-16T10:39:53.454Z,1232.00
2023-07-16T10:40:53.608Z,868.00
2023-07-16T10:41:53.451Z,736.00
2023-07-16T10:42:53.430Z,664.00
2023-07-16T10:43:55.680Z,648.00
2023-07-16T10:44:53.407Z,712.00
2023-07-16T10:45:53.420Z,776.00
2023-07-16T10:46:53.404Z,904.00
2023-07-16T10:47:53.704Z,1196.00
2023-07-16T10:48:53.352Z,1328.00
2023-07-16T10:49:53.374Z,1208.00
2023-07-16T10:50:53.338Z,1016.00
2023-07-16T10:51:53.329Z,1020.00
2023-07-16T10:52:53.318Z,1108.00
2023-07-16T10:53:53.337Z,1108.00
2023-07-16T10:54:53.285Z,1172.00
2023-07-16T10:55:53.278Z,1164.00
2023-07-16T10:56:53.271Z,996.00
2023-07-16T10:57:53.260Z,928.00
2023-07-16T10:58:53.248Z,964.00
2023-07-16T10:59:53.241Z,932.00
2023-07-16T11:00:53.287Z,1420.00
2023-07-16T11:01:53.275Z,1092.00
2023-07-16T11:02:53.330Z,1584.00
2023-07-16T11:03:53.316Z,1260.00
2023-07-16T11:04:53.182Z,1408.00
2023-07-16T11:05:53.198Z,1492.00
2023-07-16T11:06:53.154Z,1224.00
2023-07-16T11:07:55.108Z,1576.00
2023-07-16T11:08:53.145Z,1516.00
2023-07-16T11:09:53.146Z,1480.00
2023-07-16T11:10:53.130Z,1592.00
2023-07-16T11:11:53.141Z,1752.00
2023-07-16T11:12:53.091Z,1940.00
2023-07-16T11:13:53.152Z,1920.00
2023-07-16T11:14:53.073Z,1224.00
2023-07-16T11:15:53.140Z,1076.00
2023-07-16T11:16:53.055Z,1028.00
2023-07-16T11:17:53.160Z,1128.00
2023-07-16T11:18:53.036Z,1144.00
2023-07-16T11:19:53.045Z,1040.00
2023-07-16T11:20:53.001Z,1008.00
2023-07-16T11:21:52.996Z,1152.00
2023-07-16T11:22:53.075Z,1396.00
2023-07-16T11:23:52.981Z,1372.00
2023-07-16T11:24:53.042Z,1136.00
2023-07-16T11:25:52.966Z,1276.00
2023-07-16T11:26:52.957Z,1520.00
2023-07-16T11:27:52.935Z,1684.00
2023-07-16T11:28:52.955Z,2456.00
2023-07-16T11:29:53.565Z,1644.00
2023-07-16T11:30:52.948Z,1660.00
2023-07-16T11:31:53.036Z,2140.00
2023-07-16T11:32:53.123Z,2112.00
2023-07-16T11:33:52.869Z,1200.00
2023-07-16T11:34:52.857Z,1864.00
2023-07-16T11:35:52.881Z,1012.00
2023-07-16T11:36:52.835Z,1728.00
2023-07-16T11:37:52.830Z,1716.00
2023-07-16T11:38:52.816Z,1832.00
2023-07-16T11:39:52.809Z,1916.00
2023-07-16T11:40:52.813Z,2016.00
2023-07-16T11:41:52.808Z,2164.00
2023-07-16T11:42:52.774Z,2304.00
2023-07-16T11:43:52.780Z,2884.00
2023-07-16T11:44:52.751Z,3148.00
2023-07-16T11:45:52.747Z,3648.00
2023-07-16T11:46:52.840Z,3616.00
2023-07-16T11:47:52.780Z,3776.00
2023-07-16T11:48:52.708Z,3616.00
2023-07-16T11:49:52.699Z,1068.00
2023-07-16T11:50:52.694Z,912.00
2023-07-16T11:51:52.684Z,920.00
2023-07-16T11:52:52.855Z,1044.00
2023-07-16T11:53:52.972Z,1256.00
2023-07-16T11:54:52.666Z,2524.00
2023-07-16T11:55:52.639Z,3872.00
2023-07-16T11:56:52.656Z,4236.00
2023-07-16T11:57:52.650Z,1444.00
2023-07-16T11:58:52.630Z,1072.00
2023-07-16T11:59:52.641Z,1292.00
2023-07-16T12:00:52.690Z,2316.00
2023-07-16T12:01:52.572Z,5324.00
2023-07-16T12:02:53.160Z,3524.00
2023-07-16T12:03:52.613Z,3856.00
2023-07-16T12:04:52.541Z,4240.00
2023-07-16T12:05:54.229Z,4372.00
2023-07-16T12:06:52.541Z,4356.00
2023-07-16T12:07:52.522Z,4204.00
2023-07-16T12:08:52.499Z,4224.00
2023-07-16T12:09:52.498Z,4276.00
2023-07-16T12:10:52.491Z,2884.00
2023-07-16T12:11:52.516Z,4532.00
2023-07-16T12:12:52.463Z,4608.00
2023-07-16T12:13:52.447Z,4692.00
2023-07-16T12:14:52.440Z,4912.00
2023-07-16T12:15:52.461Z,4936.00
2023-07-16T12:16:52.482Z,5280.00
2023-07-16T12:17:52.454Z,5452.00
2023-07-16T12:18:52.410Z,5692.00
2023-07-16T12:19:52.441Z,5756.00
2023-07-16T12:20:52.374Z,5260.00
2023-07-16T12:21:54.473Z,5172.00
2023-07-16T12:22:52.466Z,5076.00
2023-07-16T12:23:52.349Z,4108.00
2023-07-16T12:24:52.344Z,5080.00
2023-07-16T12:25:52.335Z,836.00
2023-07-16T12:26:52.309Z,944.00
2023-07-16T12:27:55.822Z,1328.00
2023-07-16T12:28:52.309Z,2948.00
2023-07-16T12:29:52.293Z,4860.00
2023-07-16T12:30:52.302Z,5736.00
2023-07-16T12:31:52.326Z,5920.00
2023-07-16T12:32:52.285Z,6524.00
2023-07-16T12:33:54.359Z,6484.00
2023-07-16T12:34:52.246Z,6760.00